createdAt,value
2023-05-06T00:00:22.047Z,38.69
2023-05-06T00:01:22.094Z,38.67
2023-05-06T00:02:22.193Z,38.62
2023-05-06T00:03:22.311Z,38.66
2023-05-06T00:04:22.349Z,38.66
2023-05-06T00:05:22.495Z,38.69
2023-05-06T00:06:22.392Z,38.69
2023-05-06T00:07:22.389Z,38.69
2023-05-06T00:08:22.440Z,38.63
2023-05-06T00:09:22.473Z,38.61
2023-05-06T00:10:22.495Z,38.61
2023-05-06T00:11:22.534Z,38.62
2023-05-06T00:12:22.570Z,38.62
2023-05-06T00:13:22.673Z,38.70
2023-05-06T00:14:22.631Z,38.61
2023-05-06T00:15:22.652Z,38.66
2023-05-06T00:16:22.738Z,38.66
2023-05-06T00:17:22.789Z,38.65
2023-05-06T00:18:22.885Z,38.66
2023-05-06T00:19:22.908Z,38.65
2023-05-06T00:20:22.977Z,38.62
2023-05-06T00:21:22.990Z,38.65
2023-05-06T00:22:23.047Z,38.66
2023-05-06T00:23:23.058Z,38.66
2023-05-06T00:24:23.124Z,38.65
2023-05-06T00:25:23.123Z,38.63
2023-05-06T00:26:23.176Z,38.61
2023-05-06T00:27:23.219Z,38.62
2023-05-06T00:28:23.268Z,38.63
2023-05-06T00:29:23.376Z,38.65
2023-05-06T00:30:23.348Z,38.62
2023-05-06T00:31:24.340Z,38.62
2023-05-06T00:32:23.508Z,38.63
2023-05-06T00:33:23.443Z,38.62
2023-05-06T00:34:23.429Z,38.60
2023-05-06T00:35:23.433Z,38.60
2023-05-06T00:36:23.445Z,38.61
2023-05-06T00:37:23.478Z,38.61
2023-05-06T00:38:23.526Z,38.63
2023-05-06T00:39:23.589Z,38.62
2023-05-06T00:40:23.617Z,38.60
2023-05-06T00:41:23.635Z,38.61
2023-05-06T00:42:23.651Z,38.63
2023-05-06T00:43:23.703Z,38.60
2023-05-06T00:44:23.771Z,38.61
2023-05-06T00:45:24.535Z,38.59
2023-05-06T00:46:23.889Z,38.55
2023-05-06T00:47:23.817Z,38.60
2023-05-06T00:48:23.836Z,38.58
2023-05-06T00:49:23.875Z,38.57
2023-05-06T00:50:23.892Z,38.59
2023-05-06T00:51:23.909Z,38.62
2023-05-06T00:52:23.951Z,38.58
2023-05-06T00:53:23.941Z,38.58
2023-05-06T00:54:23.943Z,38.55
2023-05-06T00:55:23.945Z,38.57
2023-05-06T00:56:23.957Z,38.56
2023-05-06T00:57:23.965Z,38.54
2023-05-06T00:58:23.983Z,38.57
2023-05-06T00:59:24.014Z,38.56
2023-05-06T01:00:23.989Z,38.56
2023-05-06T01:01:24.168Z,38.55
2023-05-06T01:02:26.452Z,38.50
2023-05-06T01:03:24.064Z,38.50
2023-05-06T01:04:24.137Z,38.58
2023-05-06T01:05:24.095Z,38.55
2023-05-06T01:06:24.028Z,38.55
2023-05-06T01:07:24.033Z,38.53
2023-05-06T01:08:24.060Z,38.52
2023-05-06T01:09:24.046Z,38.56
2023-05-06T01:10:24.074Z,38.57
2023-05-06T01:11:24.076Z,38.56
2023-05-06T01:12:24.075Z,38.55
2023-05-06T01:13:24.078Z,38.56
2023-05-06T01:14:24.092Z,38.55
2023-05-06T01:15:24.092Z,38.52
2023-05-06T01:16:24.152Z,38.52
2023-05-06T01:17:24.267Z,38.50
2023-05-06T01:18:24.109Z,38.57
2023-05-06T01:19:24.114Z,38.54
2023-05-06T01:20:24.126Z,38.50
2023-05-06T01:21:24.150Z,38.50
2023-05-06T01:22:24.139Z,38.52
2023-05-06T01:23:24.137Z,38.48
2023-05-06T01:24:24.127Z,38.47
2023-05-06T01:25:24.137Z,38.51
2023-05-06T01:26:24.139Z,38.52
2023-05-06T01:27:24.158Z,38.48
2023-05-06T01:28:24.148Z,38.47
2023-05-06T01:29:24.167Z,38.48
2023-05-06T01:30:24.149Z,38.51
2023-05-06T01:31:24.177Z,38.46
2023-05-06T01:32:24.169Z,38.47
2023-05-06T01:33:24.182Z,38.43
2023-05-06T01:34:24.147Z,38.47
2023-05-06T01:35:24.146Z,38.43
2023-05-06T01:36:24.152Z,38.47
2023-05-06T01:37:24.179Z,38.47
2023-05-06T01:38:24.176Z,38.50
2023-05-06T01:39:24.153Z,38.44
2023-05-06T01:40:24.142Z,38.48
2023-05-06T01:41:24.138Z,38.51
2023-05-06T01:42:24.149Z,38.44
2023-05-06T01:43:24.161Z,38.43
2023-05-06T01:44:24.160Z,38.47
2023-05-06T01:45:24.168Z,38.42
2023-05-06T01:46:24.233Z,38.43
2023-05-06T01:47:24.214Z,38.44
2023-05-06T01:48:24.186Z,38.44
2023-05-06T01:49:24.285Z,38.51
2023-05-06T01:50:24.197Z,38.46
2023-05-06T01:51:24.189Z,38.47
2023-05-06T01:52:24.171Z,38.44
2023-05-06T01:53:24.174Z,38.47
2023-05-06T01:54:24.186Z,38.40
2023-05-06T01:55:24.205Z,38.40
2023-05-06T01:56:24.221Z,38.42
2023-05-06T01:57:24.215Z,38.38
2023-05-06T01:58:24.213Z,38.40
2023-05-06T01:59:24.214Z,38.40
2023-05-06T02:00:24.217Z,38.38
2023-05-06T02:01:24.235Z,38.42
2023-05-06T02:02:24.351Z,38.40
2023-05-06T02:03:24.417Z,38.42
2023-05-06T02:04:24.251Z,38.39
2023-05-06T02:05:24.286Z,38.43
2023-05-06T02:06:24.260Z,38.37
2023-05-06T02:07:24.252Z,38.39
2023-05-06T02:08:24.259Z,38.36
2023-05-06T02:09:24.270Z,38.38
2023-05-06T02:10:24.273Z,38.37
2023-05-06T02:11:24.295Z,38.37
2023-05-06T02:12:24.288Z,38.34
2023-05-06T02:13:24.305Z,38.39
2023-05-06T02:14:24.297Z,38.38
2023-05-06T02:15:24.313Z,38.34
2023-05-06T02:16:24.362Z,38.40
2023-05-06T02:17:24.356Z,38.35
2023-05-06T02:18:24.337Z,38.36
2023-05-06T02:19:24.343Z,38.34
2023-05-06T02:20:24.346Z,38.38
2023-05-06T02:21:24.469Z,38.34
2023-05-06T02:22:24.370Z,38.37
2023-05-06T02:23:24.373Z,38.35
2023-05-06T02:24:24.369Z,38.31
2023-05-06T02:25:24.384Z,38.38
2023-05-06T02:26:24.410Z,38.28
2023-05-06T02:27:24.385Z,38.34
2023-05-06T02:28:24.388Z,38.35
2023-05-06T02:29:24.391Z,38.35
2023-05-06T02:30:24.402Z,38.31
2023-05-06T02:31:24.466Z,38.33
2023-05-06T02:32:24.437Z,38.33
2023-05-06T02:33:24.425Z,38.39
2023-05-06T02:34:24.442Z,38.31
2023-05-06T02:35:24.460Z,38.31
2023-05-06T02:36:24.470Z,38.33
2023-05-06T02:37:24.576Z,38.31
2023-05-06T02:38:24.496Z,38.33
2023-05-06T02:39:24.493Z,38.27
2023-05-06T02:40:24.505Z,38.29
2023-05-06T02:41:24.514Z,38.30
2023-05-06T02:42:24.540Z,38.28
2023-05-06T02:43:24.522Z,38.30
2023-05-06T02:44:24.536Z,38.31
2023-05-06T02:45:24.550Z,38.31
2023-05-06T02:46:24.811Z,38.30
2023-05-06T02:47:24.624Z,38.31
2023-05-06T02:48:24.581Z,38.27
2023-05-06T02:49:24.593Z,38.28
2023-05-06T02:50:24.586Z,38.24
2023-05-06T02:51:24.599Z,38.28
2023-05-06T02:52:24.615Z,38.28
2023-05-06T02:53:24.691Z,38.28
2023-05-06T02:54:24.592Z,38.24
2023-05-06T02:55:24.611Z,38.23
2023-05-06T02:56:24.619Z,38.27
2023-05-06T02:57:24.629Z,38.25
2023-05-06T02:58:24.632Z,38.26
2023-05-06T02:59:24.633Z,38.20
2023-05-06T03:00:24.640Z,38.23
2023-05-06T03:01:24.752Z,38.27
2023-05-06T03:02:24.690Z,38.23
2023-05-06T03:03:24.645Z,38.27
2023-05-06T03:04:24.696Z,38.20
2023-05-06T03:05:24.657Z,38.25
2023-05-06T03:06:24.653Z,38.24
2023-05-06T03:07:24.669Z,38.14
2023-05-06T03:08:24.682Z,38.23
2023-05-06T03:09:24.791Z,38.27
2023-05-06T03:10:24.709Z,38.22
2023-05-06T03:11:24.714Z,38.25
2023-05-06T03:12:24.706Z,38.22
2023-05-06T03:13:24.715Z,38.20
2023-05-06T03:14:24.733Z,38.17
2023-05-06T03:15:24.742Z,38.22
2023-05-06T03:16:24.774Z,38.20
2023-05-06T03:17:24.763Z,38.22
2023-05-06T03:18:24.777Z,38.20
2023-05-06T03:19:24.783Z,38.16
2023-05-06T03:20:24.798Z,38.20
2023-05-06T03:21:24.823Z,38.16
2023-05-06T03:22:24.806Z,38.17
2023-05-06T03:23:24.815Z,38.17
2023-05-06T03:24:24.840Z,38.15
2023-05-06T03:25:24.862Z,38.17
2023-05-06T03:26:24.845Z,38.15
2023-05-06T03:27:24.893Z,38.15
2023-05-06T03:28:24.890Z,38.15
2023-05-06T03:29:24.915Z,38.14
2023-05-06T03:30:24.933Z,38.12
2023-05-06T03:31:25.024Z,38.15
2023-05-06T03:32:25.040Z,38.12
2023-05-06T03:33:25.012Z,38.12
2023-05-06T03:34:25.019Z,38.15
2023-05-06T03:35:25.050Z,38.15
2023-05-06T03:36:25.058Z,38.14
2023-05-06T03:37:25.073Z,38.13
2023-05-06T03:38:25.101Z,38.12
2023-05-06T03:39:25.122Z,38.15
2023-05-06T03:40:25.142Z,38.15
2023-05-06T03:41:25.262Z,38.15
2023-05-06T03:42:25.189Z,38.17
2023-05-06T03:43:25.195Z,38.10
2023-05-06T03:44:25.208Z,38.13
2023-05-06T03:45:25.242Z,38.12
2023-05-06T03:46:25.347Z,38.11
2023-05-06T03:47:25.369Z,38.13
2023-05-06T03:48:25.291Z,38.11
2023-05-06T03:49:25.316Z,38.13
2023-05-06T03:50:25.323Z,38.11
2023-05-06T03:51:25.351Z,38.13
2023-05-06T03:52:25.378Z,38.12
2023-05-06T03:53:25.379Z,38.09
2023-05-06T03:54:25.409Z,38.13
2023-05-06T03:55:25.433Z,38.16
2023-05-06T03:56:25.444Z,38.10
2023-05-06T03:57:25.555Z,38.09
2023-05-06T03:58:25.484Z,38.13
2023-05-06T03:59:25.507Z,38.08
2023-05-06T04:00:25.530Z,38.09
2023-05-06T04:01:25.546Z,38.03
2023-05-06T04:02:25.763Z,38.07
2023-05-06T04:03:25.668Z,38.08
2023-05-06T04:04:25.611Z,38.10
2023-05-06T04:05:25.643Z,38.08
2023-05-06T04:06:25.652Z,38.08
2023-05-06T04:07:25.694Z,38.10
2023-05-06T04:08:25.697Z,38.04
2023-05-06T04:09:25.728Z,38.06
2023-05-06T04:10:25.757Z,38.06
2023-05-06T04:11:26.664Z,38.04
2023-05-06T04:12:26.007Z,38.04
2023-05-06T04:13:26.108Z,38.08
2023-05-06T04:14:26.005Z,38.09
2023-05-06T04:15:26.034Z,38.07
2023-05-06T04:16:26.075Z,38.03
2023-05-06T04:17:26.107Z,38.07
2023-05-06T04:18:26.082Z,38.08
2023-05-06T04:19:26.107Z,37.98
2023-05-06T04:20:26.126Z,38.04
2023-05-06T04:21:26.162Z,38.05
2023-05-06T04:22:26.171Z,38.05
2023-05-06T04:23:26.190Z,38.01
2023-05-06T04:24:26.229Z,38.04
2023-05-06T04:25:26.242Z,38.03
2023-05-06T04:26:26.252Z,38.04
2023-05-06T04:27:26.271Z,38.01
2023-05-06T04:28:26.302Z,38.02
2023-05-06T04:29:26.418Z,38.03
2023-05-06T04:30:26.338Z,38.01
2023-05-06T04:31:26.399Z,38.03
2023-05-06T04:32:26.387Z,38.07
2023-05-06T04:33:26.396Z,38.03
2023-05-06T04:34:26.427Z,38.02
2023-05-06T04:35:26.452Z,38.01
2023-05-06T04:36:26.484Z,38.00
2023-05-06T04:37:26.496Z,37.99
2023-05-06T04:38:26.517Z,38.00
2023-05-06T04:39:26.548Z,38.03
2023-05-06T04:40:26.563Z,38.02
2023-05-06T04:41:26.588Z,38.00
2023-05-06T04:42:26.652Z,37.96
2023-05-06T04:43:26.663Z,37.99
2023-05-06T04:44:26.663Z,37.96
2023-05-06T04:45:26.758Z,37.96
2023-05-06T04:46:26.705Z,38.00
2023-05-06T04:47:26.767Z,38.04
2023-05-06T04:48:27.608Z,37.99
2023-05-06T04:49:26.767Z,37.97
2023-05-06T04:50:26.787Z,37.97
2023-05-06T04:51:26.823Z,38.02
2023-05-06T04:52:26.825Z,38.00
2023-05-06T04:53:26.855Z,37.98
2023-05-06T04:54:26.873Z,37.99
2023-05-06T04:55:26.890Z,37.95
2023-05-06T04:56:26.899Z,38.01
2023-05-06T04:57:26.920Z,38.00
2023-05-06T04:58:26.952Z,37.98
2023-05-06T04:59:26.982Z,37.95
2023-05-06T05:00:27.006Z,37.97
2023-05-06T05:01:27.126Z,37.98
2023-05-06T05:02:27.190Z,37.92
2023-05-06T05:03:27.261Z,37.96
2023-05-06T05:04:27.135Z,37.95
2023-05-06T05:05:27.149Z,37.97
2023-05-06T05:06:27.186Z,37.95
2023-05-06T05:07:27.231Z,37.94
2023-05-06T05:08:27.263Z,38.00
2023-05-06T05:09:27.321Z,37.94
2023-05-06T05:10:27.324Z,37.96
2023-05-06T05:11:27.365Z,37.96
2023-05-06T05:12:27.354Z,37.94
2023-05-06T05:13:27.387Z,37.92
2023-05-06T05:14:27.419Z,37.93
2023-05-06T05:15:27.442Z,37.94
2023-05-06T05:16:27.508Z,37.94
2023-05-06T05:17:27.727Z,37.96
2023-05-06T05:18:27.545Z,37.94
2023-05-06T05:19:27.576Z,37.94
2023-05-06T05:20:27.605Z,37.93
2023-05-06T05:21:27.660Z,37.96
2023-05-06T05:22:27.648Z,37.92
2023-05-06T05:23:27.678Z,37.94
2023-05-06T05:24:27.703Z,37.92
2023-05-06T05:25:27.719Z,37.95
2023-05-06T05:26:27.750Z,37.89
2023-05-06T05:27:27.786Z,37.89
2023-05-06T05:28:27.807Z,37.95
2023-05-06T05:29:28.469Z,37.94
2023-05-06T05:30:27.855Z,37.88
2023-05-06T05:31:27.973Z,37.91
2023-05-06T05:32:27.951Z,37.92
2023-05-06T05:33:28.075Z,37.91
2023-05-06T05:34:27.996Z,37.90
2023-05-06T05:35:28.031Z,37.87
2023-05-06T05:36:28.052Z,37.89
2023-05-06T05:37:28.082Z,37.88
2023-05-06T05:38:28.115Z,37.92
2023-05-06T05:39:28.143Z,37.86
2023-05-06T05:40:28.158Z,37.88
2023-05-06T05:41:28.214Z,37.89
2023-05-06T05:42:28.223Z,37.86
2023-05-06T05:43:28.254Z,37.88
2023-05-06T05:44:28.290Z,37.85
2023-05-06T05:45:28.339Z,37.89
2023-05-06T05:46:28.389Z,37.88
2023-05-06T05:47:28.416Z,37.84
2023-05-06T05:48:28.414Z,37.85
2023-05-06T05:49:28.620Z,37.88
2023-05-06T05:50:28.476Z,37.90
2023-05-06T05:51:28.503Z,37.82
2023-05-06T05:52:28.549Z,37.83
2023-05-06T05:53:28.571Z,37.85
2023-05-06T05:54:28.593Z,37.84
2023-05-06T05:55:28.642Z,38.04
2023-05-06T05:56:28.698Z,37.96
2023-05-06T05:57:28.708Z,39.64
2023-05-06T05:58:28.770Z,39.80
2023-05-06T05:59:28.834Z,40.09
2023-05-06T06:00:28.924Z,40.46
2023-05-06T06:01:29.013Z,40.68
2023-05-06T06:02:29.218Z,40.90
2023-05-06T06:03:29.336Z,40.94
2023-05-06T06:04:29.397Z,41.00
2023-05-06T06:05:29.574Z,41.17
2023-05-06T06:06:29.462Z,41.22
2023-05-06T06:07:31.243Z,41.58
2023-05-06T06:08:29.592Z,41.63
2023-05-06T06:09:29.608Z,41.93
2023-05-06T06:10:29.663Z,41.93
2023-05-06T06:11:29.675Z,42.06
2023-05-06T06:12:29.701Z,42.22
2023-05-06T06:13:29.914Z,42.53
2023-05-06T06:14:29.776Z,42.63
2023-05-06T06:15:29.823Z,42.58
2023-05-06T06:16:29.878Z,42.80
2023-05-06T06:17:29.927Z,43.14
2023-05-06T06:18:30.152Z,43.16
2023-05-06T06:19:29.979Z,43.34
2023-05-06T06:20:30.034Z,43.44
2023-05-06T06:21:30.358Z,43.42
2023-05-06T06:22:30.122Z,43.65
2023-05-06T06:23:30.167Z,43.61
2023-05-06T06:24:30.205Z,43.62
2023-05-06T06:25:30.237Z,43.64
2023-05-06T06:26:30.267Z,43.63
2023-05-06T06:27:30.296Z,43.50
2023-05-06T06:28:30.349Z,43.41
2023-05-06T06:29:30.370Z,43.22
2023-05-06T06:30:30.427Z,43.10
2023-05-06T06:31:30.455Z,43.09
2023-05-06T06:32:30.496Z,43.11
2023-05-06T06:33:30.575Z,42.94
2023-05-06T06:34:30.560Z,42.98
2023-05-06T06:35:30.627Z,42.93
2023-05-06T06:36:30.644Z,43.03
2023-05-06T06:37:30.707Z,42.89
2023-05-06T06:38:30.735Z,42.92
2023-05-06T06:39:30.755Z,43.05
2023-05-06T06:40:30.792Z,43.10
2023-05-06T06:41:30.851Z,43.07
2023-05-06T06:42:30.872Z,43.02
2023-05-06T06:43:30.910Z,42.95
2023-05-06T06:44:30.937Z,42.87
2023-05-06T06:45:30.996Z,42.79
2023-05-06T06:46:31.006Z,42.99
2023-05-06T06:47:31.120Z,43.05
2023-05-06T06:48:31.080Z,43.04
2023-05-06T06:49:31.148Z,43.05
2023-05-06T06:50:31.172Z,42.95
2023-05-06T06:51:31.261Z,43.00
2023-05-06T06:52:31.347Z,43.02
2023-05-06T06:53:31.551Z,43.17
2023-05-06T06:54:31.434Z,43.30
2023-05-06T06:55:31.494Z,43.64
2023-05-06T06:56:31.562Z,43.90
2023-05-06T06:57:31.643Z,44.40
2023-05-06T06:58:31.747Z,44.63
2023-05-06T06:59:31.846Z,44.61
2023-05-06T07:00:32.003Z,44.70
2023-05-06T07:01:32.106Z,44.71
2023-05-06T07:02:32.238Z,44.85
2023-05-06T07:03:32.251Z,44.86
2023-05-06T07:04:32.414Z,44.80
2023-05-06T07:05:32.467Z,44.82
2023-05-06T07:06:32.520Z,44.53
2023-05-06T07:07:33.166Z,44.28
2023-05-06T07:08:32.646Z,44.10
2023-05-06T07:09:35.073Z,44.01
2023-05-06T07:10:32.708Z,43.87
2023-05-06T07:11:32.743Z,43.70
2023-05-06T07:12:32.811Z,43.46
2023-05-06T07:13:32.808Z,43.20
2023-05-06T07:14:32.833Z,42.90
2023-05-06T07:15:32.857Z,42.68
2023-05-06T07:16:32.921Z,42.46
2023-05-06T07:17:32.940Z,42.25
2023-05-06T07:18:32.933Z,41.94
2023-05-06T07:19:32.978Z,41.75
2023-05-06T07:20:33.000Z,41.75
2023-05-06T07:21:33.024Z,41.81
2023-05-06T07:22:33.042Z,41.73
2023-05-06T07:23:33.065Z,41.72
2023-05-06T07:24:33.106Z,41.74
2023-05-06T07:25:33.255Z,41.33
2023-05-06T07:26:33.137Z,40.81
2023-05-06T07:27:33.164Z,40.93
2023-05-06T07:28:33.192Z,40.99
2023-05-06T07:29:33.227Z,40.34
2023-05-06T07:30:33.228Z,40.75
2023-05-06T07:31:33.360Z,40.84
2023-05-06T07:32:33.299Z,40.91
2023-05-06T07:33:33.304Z,40.74
2023-05-06T07:34:33.312Z,40.73
2023-05-06T07:35:33.329Z,40.95
2023-05-06T07:36:33.346Z,40.97
2023-05-06T07:37:33.367Z,40.96
2023-05-06T07:38:33.375Z,40.91
2023-05-06T07:39:33.400Z,40.89
2023-05-06T07:40:33.413Z,40.84
2023-05-06T07:41:33.554Z,40.84
2023-05-06T07:42:33.423Z,40.84
2023-05-06T07:43:33.432Z,40.78
2023-05-06T07:44:33.450Z,40.67
2023-05-06T07:45:33.473Z,40.02
2023-05-06T07:46:33.691Z,40.15
2023-05-06T07:47:33.556Z,39.81
2023-05-06T07:48:33.584Z,39.94
2023-05-06T07:49:33.520Z,40.07
2023-05-06T07:50:33.518Z,40.10
2023-05-06T07:51:33.530Z,39.98
2023-05-06T07:52:33.561Z,40.10
2023-05-06T07:53:33.560Z,40.11
2023-05-06T07:54:33.585Z,40.13
2023-05-06T07:55:35.181Z,40.08
2023-05-06T07:56:33.840Z,40.11
2023-05-06T07:57:33.944Z,40.04
2023-05-06T07:58:33.984Z,40.01
2023-05-06T07:59:34.051Z,40.01
2023-05-06T08:00:34.146Z,39.98
2023-05-06T08:01:34.165Z,39.98
2023-05-06T08:02:34.305Z,39.91
2023-05-06T08:03:34.413Z,39.54
2023-05-06T08:04:34.390Z,39.60
2023-05-06T08:05:34.464Z,39.58
2023-05-06T08:06:34.512Z,39.58
2023-05-06T08:07:34.595Z,39.52
2023-05-06T08:08:34.673Z,38.94
2023-05-06T08:09:34.752Z,39.28
2023-05-06T08:10:34.839Z,39.39
2023-05-06T08:11:34.920Z,39.38
2023-05-06T08:12:35.007Z,39.37
2023-05-06T08:13:35.113Z,39.23
2023-05-06T08:14:35.162Z,39.34
2023-05-06T08:15:35.254Z,39.36
2023-05-06T08:16:35.376Z,39.34
2023-05-06T08:17:35.403Z,39.36
2023-05-06T08:18:35.453Z,39.34
2023-05-06T08:19:35.525Z,39.34
2023-05-06T08:20:35.609Z,39.35
2023-05-06T08:21:35.670Z,38.99
2023-05-06T08:22:35.787Z,39.09
2023-05-06T08:23:35.826Z,38.99
2023-05-06T08:24:35.875Z,39.05
2023-05-06T08:25:35.943Z,39.05
2023-05-06T08:26:35.996Z,38.69
2023-05-06T08:27:36.037Z,38.97
2023-05-06T08:28:36.082Z,38.83
2023-05-06T08:29:36.205Z,38.92
2023-05-06T08:30:36.212Z,38.96
2023-05-06T08:31:36.281Z,38.96
2023-05-06T08:32:36.428Z,38.96
2023-05-06T08:33:36.390Z,38.91
2023-05-06T08:34:36.476Z,39.01
2023-05-06T08:35:36.556Z,38.93
2023-05-06T08:36:36.629Z,38.93
2023-05-06T08:37:36.686Z,38.67
2023-05-06T08:38:36.989Z,38.99
2023-05-06T08:39:36.827Z,39.24
2023-05-06T08:40:36.912Z,39.47
2023-05-06T08:41:36.971Z,39.48
2023-05-06T08:42:37.022Z,39.67
2023-05-06T08:43:37.089Z,39.65
2023-05-06T08:44:37.090Z,40.04
2023-05-06T08:45:37.155Z,40.28
2023-05-06T08:46:37.146Z,40.25
2023-05-06T08:47:37.196Z,40.49
2023-05-06T08:48:37.202Z,40.40
2023-05-06T08:49:37.221Z,40.34
2023-05-06T08:50:37.249Z,40.22
2023-05-06T08:51:37.268Z,40.36
2023-05-06T08:52:37.289Z,40.46
2023-05-06T08:53:37.358Z,40.68
2023-05-06T08:54:37.472Z,40.67
2023-05-06T08:55:37.467Z,40.93
2023-05-06T08:56:37.476Z,40.80
2023-05-06T08:57:37.532Z,40.74
2023-05-06T08:58:37.574Z,40.89
2023-05-06T08:59:37.615Z,40.85
2023-05-06T09:00:37.688Z,40.95
2023-05-06T09:01:38.068Z,40.79
2023-05-06T09:02:39.858Z,40.74
2023-05-06T09:03:38.053Z,40.73
2023-05-06T09:04:37.897Z,40.77
2023-05-06T09:05:37.880Z,40.87
2023-05-06T09:06:37.908Z,40.89
2023-05-06T09:07:37.926Z,40.92
2023-05-06T09:08:37.960Z,40.93
2023-05-06T09:09:38.032Z,40.88
2023-05-06T09:10:38.164Z,40.95
2023-05-06T09:11:38.164Z,40.93
2023-05-06T09:12:38.263Z,41.13
2023-05-06T09:13:38.299Z,41.13
2023-05-06T09:14:38.345Z,41.03
2023-05-06T09:15:38.406Z,41.04
2023-05-06T09:16:38.583Z,41.11
2023-05-06T09:17:38.697Z,41.10
2023-05-06T09:18:38.646Z,41.32
2023-05-06T09:19:38.689Z,41.28
2023-05-06T09:20:38.774Z,41.29
2023-05-06T09:21:38.865Z,41.34
2023-05-06T09:22:38.924Z,41.42
2023-05-06T09:23:39.011Z,41.50
2023-05-06T09:24:39.071Z,41.50
2023-05-06T09:25:39.166Z,41.52
2023-05-06T09:26:39.215Z,41.60
2023-05-06T09:27:39.279Z,41.64
2023-05-06T09:28:39.342Z,41.65
2023-05-06T09:29:39.392Z,41.62
2023-05-06T09:30:39.481Z,41.65
2023-05-06T09:31:39.514Z,41.62
2023-05-06T09:32:40.617Z,41.62
2023-05-06T09:33:39.733Z,41.57
2023-05-06T09:34:39.716Z,41.68
2023-05-06T09:35:39.702Z,41.63
2023-05-06T09:36:39.755Z,41.63
2023-05-06T09:37:39.797Z,41.62
2023-05-06T09:38:39.843Z,41.64
2023-05-06T09:39:39.942Z,41.72
2023-05-06T09:40:39.946Z,41.75
2023-05-06T09:41:39.970Z,41.71
2023-05-06T09:42:40.024Z,41.76
2023-05-06T09:43:40.057Z,41.80
2023-05-06T09:44:40.082Z,41.83
2023-05-06T09:45:40.123Z,41.81
2023-05-06T09:46:40.253Z,41.87
2023-05-06T09:47:40.258Z,41.82
2023-05-06T09:48:40.240Z,41.92
2023-05-06T09:49:40.433Z,41.86
2023-05-06T09:50:40.325Z,41.90
2023-05-06T09:51:40.350Z,41.92
2023-05-06T09:52:40.391Z,42.05
2023-05-06T09:53:40.416Z,42.14
2023-05-06T09:54:40.432Z,42.04
2023-05-06T09:55:40.461Z,42.09
2023-05-06T09:56:40.493Z,42.12
2023-05-06T09:57:40.522Z,42.08
2023-05-06T09:58:40.563Z,42.11
2023-05-06T09:59:40.594Z,42.14
2023-05-06T10:00:40.616Z,42.09
2023-05-06T10:01:40.663Z,42.01
2023-05-06T10:02:40.828Z,41.96
2023-05-06T10:03:40.844Z,41.95
2023-05-06T10:04:40.856Z,42.02
2023-05-06T10:05:40.894Z,42.04
2023-05-06T10:06:40.799Z,42.03
2023-05-06T10:07:40.778Z,41.99
2023-05-06T10:08:40.792Z,42.14
2023-05-06T10:09:41.818Z,42.02
2023-05-06T10:10:40.875Z,42.06
2023-05-06T10:11:40.851Z,42.10
2023-05-06T10:12:40.914Z,42.13
2023-05-06T10:13:40.901Z,42.08
2023-05-06T10:14:40.911Z,42.13
2023-05-06T10:15:40.934Z,42.16
2023-05-06T10:16:41.061Z,42.20
2023-05-06T10:17:40.995Z,42.21
2023-05-06T10:18:40.993Z,42.24
2023-05-06T10:19:40.997Z,42.29
2023-05-06T10:20:41.040Z,42.23
2023-05-06T10:21:41.138Z,42.23
2023-05-06T10:22:41.069Z,42.20
2023-05-06T10:23:41.068Z,42.29
2023-05-06T10:24:41.076Z,42.39
2023-05-06T10:25:41.112Z,42.30
2023-05-06T10:26:41.145Z,42.45
2023-05-06T10:27:41.149Z,42.42
2023-05-06T10:28:41.161Z,42.37
2023-05-06T10:29:41.183Z,42.31
2023-05-06T10:30:41.205Z,42.39
2023-05-06T10:31:41.266Z,42.45
2023-05-06T10:32:41.302Z,42.42
2023-05-06T10:33:42.456Z,42.31
2023-05-06T10:34:41.301Z,42.23
2023-05-06T10:35:41.352Z,42.21
2023-05-06T10:36:41.359Z,42.17
2023-05-06T10:37:41.561Z,42.09
2023-05-06T10:38:41.410Z,42.02
2023-05-06T10:39:42.197Z,42.05
2023-05-06T10:40:41.484Z,41.97
2023-05-06T10:41:41.530Z,41.97
2023-05-06T10:42:41.558Z,41.95
2023-05-06T10:43:41.597Z,41.91
2023-05-06T10:44:41.620Z,41.84
2023-05-06T10:45:41.652Z,41.82
2023-05-06T10:46:41.682Z,41.79
2023-05-06T10:47:41.730Z,41.73
2023-05-06T10:48:41.748Z,41.68
2023-05-06T10:49:41.788Z,41.64
2023-05-06T10:50:41.831Z,41.65
2023-05-06T10:51:41.878Z,41.64
2023-05-06T10:52:41.877Z,41.64
2023-05-06T10:53:41.949Z,41.67
2023-05-06T10:54:41.948Z,41.66
2023-05-06T10:55:41.988Z,41.69
2023-05-06T10:56:42.030Z,41.68
2023-05-06T10:57:42.056Z,41.66
2023-05-06T10:58:42.094Z,41.71
2023-05-06T10:59:42.141Z,41.72
2023-05-06T11:00:42.232Z,41.73
2023-05-06T11:01:42.217Z,41.67
2023-05-06T11:02:42.355Z,41.70
2023-05-06T11:03:42.364Z,41.70
2023-05-06T11:04:42.340Z,41.71
2023-05-06T11:05:42.377Z,41.70
2023-05-06T11:06:42.433Z,41.72
2023-05-06T11:07:42.447Z,41.68
2023-05-06T11:08:43.096Z,41.73
2023-05-06T11:09:42.800Z,41.73
2023-05-06T11:10:42.745Z,41.69
2023-05-06T11:11:42.791Z,41.71
2023-05-06T11:12:42.838Z,41.68
2023-05-06T11:13:42.863Z,41.69
2023-05-06T11:14:42.897Z,41.66
2023-05-06T11:15:42.934Z,41.67
2023-05-06T11:16:43.035Z,41.70
2023-05-06T11:17:43.088Z,41.69
2023-05-06T11:18:43.079Z,41.69
2023-05-06T11:19:43.116Z,41.65
2023-05-06T11:20:43.184Z,41.69
2023-05-06T11:21:43.200Z,41.65
2023-05-06T11:22:43.238Z,41.68
2023-05-06T11:23:43.293Z,41.64
2023-05-06T11:24:43.349Z,41.60
2023-05-06T11:25:43.473Z,41.61
2023-05-06T11:26:43.435Z,41.65
2023-05-06T11:27:43.471Z,41.63
2023-05-06T11:28:43.506Z,41.64
2023-05-06T11:29:43.555Z,41.59
2023-05-06T11:30:43.641Z,41.58
2023-05-06T11:31:43.643Z,41.57
2023-05-06T11:32:43.712Z,41.53
2023-05-06T11:33:43.750Z,41.55
2023-05-06T11:34:43.774Z,41.53
2023-05-06T11:35:43.807Z,41.54
2023-05-06T11:36:43.856Z,41.55
2023-05-06T11:37:43.939Z,41.57
2023-05-06T11:38:43.950Z,41.52
2023-05-06T11:39:44.037Z,41.50
2023-05-06T11:40:44.047Z,41.50
2023-05-06T11:41:44.181Z,41.47
2023-05-06T11:42:44.131Z,41.50
2023-05-06T11:43:44.171Z,41.46
2023-05-06T11:44:44.212Z,41.46
2023-05-06T11:45:44.265Z,41.49
2023-05-06T11:46:44.351Z,41.42
2023-05-06T11:47:44.394Z,41.42
2023-05-06T11:48:44.401Z,41.42
2023-05-06T11:49:44.478Z,41.42
2023-05-06T11:50:44.497Z,41.38
2023-05-06T11:51:44.546Z,41.40
2023-05-06T11:52:44.584Z,41.37
2023-05-06T11:53:44.640Z,41.37
2023-05-06T11:54:44.690Z,41.36
2023-05-06T11:55:44.757Z,41.38
2023-05-06T11:56:44.779Z,41.39
2023-05-06T11:57:44.945Z,41.38
2023-05-06T11:58:44.885Z,41.38
2023-05-06T11:59:44.930Z,41.43
2023-05-06T12:00:44.979Z,41.43
2023-05-06T12:01:45.031Z,41.37
2023-05-06T12:02:45.130Z,41.41
2023-05-06T12:03:45.333Z,41.35
2023-05-06T12:04:45.189Z,41.34
2023-05-06T12:05:45.231Z,41.32
2023-05-06T12:06:45.280Z,41.32
2023-05-06T12:07:45.341Z,41.29
2023-05-06T12:08:45.388Z,41.30
2023-05-06T12:09:45.445Z,41.29
2023-05-06T12:10:45.494Z,41.28
2023-05-06T12:11:45.536Z,41.27
2023-05-06T12:12:45.621Z,41.21
2023-05-06T12:13:45.924Z,41.18
2023-05-06T12:14:45.655Z,41.14
2023-05-06T12:15:45.709Z,41.07
2023-05-06T12:16:45.822Z,41.09
2023-05-06T12:17:45.788Z,41.10
2023-05-06T12:18:45.827Z,41.07
2023-05-06T12:19:45.867Z,41.04
2023-05-06T12:20:45.902Z,41.02
2023-05-06T12:21:45.944Z,41.01
2023-05-06T12:22:45.982Z,40.97
2023-05-06T12:23:46.057Z,40.98
2023-05-06T12:24:46.080Z,40.98
2023-05-06T12:25:46.125Z,40.91
2023-05-06T12:26:46.159Z,40.94
2023-05-06T12:27:46.188Z,40.90
2023-05-06T12:28:46.274Z,40.90
2023-05-06T12:29:46.371Z,40.89
2023-05-06T12:30:46.312Z,40.87
2023-05-06T12:31:46.433Z,40.87
2023-05-06T12:32:46.458Z,40.84
2023-05-06T12:33:46.585Z,40.82
2023-05-06T12:34:46.511Z,40.78
2023-05-06T12:35:46.545Z,40.78
2023-05-06T12:36:46.577Z,40.74
2023-05-06T12:37:46.618Z,40.75
2023-05-06T12:38:46.664Z,40.80
2023-05-06T12:39:46.715Z,40.76
2023-05-06T12:40:46.750Z,40.77
2023-05-06T12:41:46.800Z,40.72
2023-05-06T12:42:46.839Z,40.72
2023-05-06T12:43:46.882Z,40.71
2023-05-06T12:44:46.948Z,40.67
2023-05-06T12:45:47.099Z,40.69
2023-05-06T12:46:47.023Z,40.66
2023-05-06T12:47:47.089Z,40.69
2023-05-06T12:48:47.118Z,40.72
2023-05-06T12:49:47.189Z,40.66
2023-05-06T12:50:47.201Z,40.62
2023-05-06T12:51:47.831Z,40.64
2023-05-06T12:52:47.279Z,40.59